createdAt,value
2022-11-20T00:01:26.214Z,18.20
2022-11-20T00:03:54.620Z,17.17
2022-11-20T00:07:36.892Z,18.63
2022-11-20T00:10:23.844Z,14.35
2022-11-20T00:12:59.236Z,11.82
2022-11-20T00:15:26.080Z,13.57
2022-11-20T00:17:52.859Z,12.35
2022-11-20T00:20:19.876Z,12.48
2022-11-20T00:22:46.814Z,12.90
2022-11-20T00:25:13.960Z,11.95
2022-11-20T00:27:41.097Z,11.32
2022-11-20T00:30:12.324Z,12.43
2022-11-20T00:32:41.469Z,12.17
2022-11-20T00:35:08.525Z,11.45
2022-11-20T00:37:35.258Z,12.85
2022-11-20T00:40:02.039Z,12.15
2022-11-20T00:42:28.742Z,12.00
2022-11-20T00:44:55.460Z,12.07
2022-11-20T00:47:22.251Z,10.80
2022-11-20T00:49:49.256Z,10.38
2022-11-20T00:52:16.013Z,12.18
2022-11-20T00:54:42.832Z,13.85
2022-11-20T00:57:09.632Z,11.23
2022-11-20T00:59:36.353Z,13.57
2022-11-20T01:02:03.098Z,12.60
2022-11-20T01:04:29.872Z,10.77
2022-11-20T01:06:56.635Z,11.70
2022-11-20T01:09:23.536Z,11.20
2022-11-20T01:11:50.551Z,11.75
2022-11-20T01:14:20.788Z,9.98
2022-11-20T01:16:50.568Z,9.75
2022-11-20T01:19:21.819Z,9.70
2022-11-20T01:21:52.743Z,9.73
2022-11-20T01:24:22.734Z,10.95
2022-11-20T01:26:51.318Z,10.10
2022-11-20T01:29:25.596Z,10.27
2022-11-20T01:31:53.552Z,10.73
2022-11-20T01:34:21.423Z,9.40
2022-11-20T01:36:48.960Z,9.95
2022-11-20T01:39:19.201Z,12.68
2022-11-20T01:42:09.815Z,11.85
2022-11-20T01:44:55.759Z,15.52
2022-11-20T01:47:41.736Z,20.25
2022-11-20T01:50:29.798Z,19.60
2022-11-20T01:53:01.774Z,16.60
2022-11-20T01:55:37.385Z,17.27
2022-11-20T01:58:05.809Z,17.77
2022-11-20T02:00:33.069Z,16.55
2022-11-20T02:03:07.696Z,16.92
2022-11-20T02:05:58.841Z,14.73
2022-11-20T02:08:25.787Z,15.30
2022-11-20T02:10:52.692Z,16.70
2022-11-20T02:13:38.110Z,19.02
2022-11-20T02:16:09.246Z,18.45
2022-11-20T02:18:36.360Z,17.58
2022-11-20T02:21:18.292Z,18.33
2022-11-20T02:24:22.841Z,16.67
2022-11-20T02:26:58.029Z,17.10
2022-11-20T02:29:28.762Z,17.17
2022-11-20T02:31:56.950Z,14.85
2022-11-20T02:34:23.956Z,15.07
2022-11-20T02:36:52.548Z,17.20
2022-11-20T02:39:22.074Z,15.95
2022-11-20T02:41:49.016Z,15.05
2022-11-20T02:44:15.919Z,15.73
2022-11-20T02:46:42.858Z,16.90
2022-11-20T02:49:09.705Z,19.75
2022-11-20T02:51:36.596Z,16.08
2022-11-20T02:54:03.966Z,18.27
2022-11-20T02:56:31.385Z,17.60
2022-11-20T02:58:58.236Z,17.90
2022-11-20T03:01:25.054Z,17.15
2022-11-20T03:03:53.244Z,16.67
2022-11-20T03:06:20.022Z,14.77
2022-11-20T03:08:46.795Z,16.13
2022-11-20T03:11:13.675Z,15.82
2022-11-20T03:13:40.441Z,13.95
2022-11-20T03:16:12.630Z,15.30
2022-11-20T03:18:40.879Z,16.02
2022-11-20T03:21:08.134Z,14.32
2022-11-20T03:23:35.471Z,13.98
2022-11-20T03:26:12.639Z,15.93
2022-11-20T03:28:39.824Z,15.30
2022-11-20T03:31:15.059Z,17.20
2022-11-20T03:33:42.783Z,19.15
2022-11-20T03:36:12.484Z,16.73
2022-11-20T03:38:39.736Z,20.23
2022-11-20T03:41:08.907Z,18.50
2022-11-20T03:43:36.593Z,16.33
2022-11-20T03:46:03.965Z,18.98
2022-11-20T03:48:30.933Z,17.15
2022-11-20T03:51:22.559Z,21.08
2022-11-20T03:53:51.814Z,21.38
2022-11-20T03:56:20.453Z,23.63
2022-11-20T03:58:47.266Z,20.50
2022-11-20T04:01:15.518Z,21.58
2022-11-20T04:03:43.773Z,18.50
2022-11-20T04:06:10.854Z,15.40
2022-11-20T04:08:38.028Z,14.57
2022-11-20T04:11:15.124Z,14.38
2022-11-20T04:13:43.431Z,15.82
2022-11-20T04:16:11.101Z,15.50
2022-11-20T04:18:37.942Z,15.73
2022-11-20T04:21:05.928Z,16.52
2022-11-20T04:23:33.175Z,20.88
2022-11-20T04:26:11.138Z,18.10
2022-11-20T04:28:38.763Z,17.92
2022-11-20T04:31:07.968Z,20.88
2022-11-20T04:33:35.536Z,19.48
2022-11-20T04:36:14.150Z,21.45
2022-11-20T04:38:41.448Z,20.45
2022-11-20T04:41:12.025Z,17.23
2022-11-20T04:43:38.780Z,16.85
2022-11-20T04:46:05.740Z,15.63
2022-11-20T04:48:32.582Z,18.70
2022-11-20T04:51:04.248Z,18.05
2022-11-20T04:53:31.637Z,16.20
2022-11-20T04:56:07.751Z,16.90
2022-11-20T04:58:36.737Z,17.85
2022-11-20T05:01:15.312Z,17.23
2022-11-20T05:03:43.535Z,16.60
2022-11-20T05:06:12.640Z,16.80
2022-11-20T05:08:39.736Z,16.58
2022-11-20T05:11:09.652Z,16.08
2022-11-20T05:13:36.962Z,16.92
2022-11-20T05:16:12.292Z,17.35
2022-11-20T05:18:40.523Z,15.02
2022-11-20T05:21:08.545Z,15.63
2022-11-20T05:23:35.735Z,15.13
2022-11-20T05:26:03.413Z,14.93
2022-11-20T05:28:31.473Z,16.85
2022-11-20T05:31:06.593Z,17.35
2022-11-20T05:33:34.480Z,16.02
2022-11-20T05:36:01.577Z,14.30
2022-11-20T05:38:28.443Z,16.83
2022-11-20T05:40:55.173Z,16.73
2022-11-20T05:43:22.069Z,19.27
2022-11-20T05:45:55.523Z,15.68
2022-11-20T05:48:22.413Z,16.13
2022-11-20T05:50:49.753Z,17.50
2022-11-20T05:53:16.821Z,18.38
2022-11-20T05:55:43.751Z,18.88
2022-11-20T05:58:10.709Z,14.40
2022-11-20T06:00:37.781Z,16.45
2022-11-20T06:03:04.754Z,16.95
2022-11-20T06:05:31.651Z,16.05
2022-11-20T06:07:58.471Z,16.33
2022-11-20T06:10:25.376Z,14.93
2022-11-20T06:12:52.136Z,17.10
2022-11-20T06:15:18.862Z,17.85
2022-11-20T06:17:45.549Z,18.05
2022-11-20T06:20:12.323Z,16.90
2022-11-20T06:22:39.067Z,17.23
2022-11-20T06:25:05.957Z,17.05
2022-11-20T06:27:32.741Z,18.27
2022-11-20T06:29:59.487Z,19.88
2022-11-20T06:32:26.228Z,19.50
2022-11-20T06:34:52.982Z,19.70
2022-11-20T06:37:19.755Z,19.70
2022-11-20T06:39:46.517Z,18.58
2022-11-20T06:42:13.224Z,18.95
2022-11-20T06:44:39.936Z,17.85
2022-11-20T06:47:06.760Z,18.90
2022-11-20T06:49:35.255Z,16.08
2022-11-20T06:52:02.197Z,15.52
2022-11-20T06:54:28.977Z,16.38
2022-11-20T06:56:55.874Z,18.30
2022-11-20T06:59:23.055Z,17.67
2022-11-20T07:01:50.174Z,18.88
2022-11-20T07:04:16.972Z,18.95
2022-11-20T07:06:43.885Z,20.58
2022-11-20T07:09:12.882Z,18.50
2022-11-20T07:11:39.786Z,19.52
2022-11-20T07:14:06.778Z,15.88
2022-11-20T07:16:33.604Z,18.35
2022-11-20T07:19:00.468Z,17.88
2022-11-20T07:21:27.209Z,20.45
2022-11-20T07:23:53.972Z,17.05
2022-11-20T07:26:20.917Z,20.38
2022-11-20T07:28:47.737Z,19.55
2022-11-20T07:31:18.708Z,19.50
2022-11-20T07:33:45.965Z,18.20
2022-11-20T07:36:12.775Z,19.30
2022-11-20T07:38:39.744Z,19.02
2022-11-20T07:41:06.584Z,18.90
2022-11-20T07:43:37.145Z,18.80
2022-11-20T07:46:07.753Z,19.10
2022-11-20T07:48:34.478Z,20.80
2022-11-20T07:51:01.364Z,21.50
2022-11-20T07:53:28.122Z,21.30
2022-11-20T07:55:54.942Z,19.63
2022-11-20T07:58:22.508Z,18.00
2022-11-20T08:00:49.429Z,22.35
2022-11-20T08:03:20.262Z,23.92
2022-11-20T08:05:50.901Z,18.92
2022-11-20T08:08:17.720Z,18.60
2022-11-20T08:10:44.429Z,20.23
2022-11-20T08:13:29.715Z,20.45
2022-11-20T08:15:56.431Z,20.05
2022-11-20T08:18:31.230Z,16.40
2022-11-20T08:20:59.374Z,17.20
2022-11-20T08:23:26.380Z,16.55
2022-11-20T08:25:53.410Z,16.92
2022-11-20T08:28:22.068Z,19.48
2022-11-20T08:30:50.985Z,28.02
2022-11-20T08:33:18.658Z,18.45
2022-11-20T08:35:45.721Z,19.13
2022-11-20T08:38:12.764Z,19.55
2022-11-20T08:40:39.710Z,19.58
2022-11-20T08:43:06.623Z,18.92
2022-11-20T08:45:34.895Z,18.95
2022-11-20T08:48:05.561Z,19.23
2022-11-20T08:50:33.966Z,22.92
2022-11-20T08:53:05.632Z,21.30
2022-11-20T08:55:33.016Z,22.48
2022-11-20T08:58:04.545Z,21.48
2022-11-20T09:00:31.450Z,20.52
2022-11-20T09:02:59.553Z,20.45
2022-11-20T09:05:26.428Z,19.13
2022-11-20T09:07:53.588Z,19.23
2022-11-20T09:10:24.728Z,18.10
2022-11-20T09:12:52.834Z,18.85
2022-11-20T09:15:20.309Z,21.33
2022-11-20T09:17:54.660Z,21.83
2022-11-20T09:20:21.860Z,24.80
2022-11-20T09:22:49.292Z,21.20
2022-11-20T09:25:16.157Z,19.27
2022-11-20T09:27:45.012Z,20.02
2022-11-20T09:30:13.085Z,17.98
2022-11-20T09:32:40.819Z,18.55
2022-11-20T09:35:08.025Z,18.42
2022-11-20T09:37:35.521Z,19.20
2022-11-20T09:40:02.531Z,17.55
2022-11-20T09:42:48.500Z,18.00
2022-11-20T09:45:41.804Z,17.60
2022-11-20T09:48:17.791Z,18.63
2022-11-20T09:50:52.966Z,16.75
2022-11-20T09:53:28.270Z,18.75
2022-11-20T09:55:56.675Z,17.25
2022-11-20T09:58:31.338Z,19.73
2022-11-20T10:03:55.132Z,16.60
2022-11-20T10:06:30.712Z,19.80
2022-11-20T10:09:00.496Z,17.85
2022-11-20T10:11:30.358Z,18.67
2022-11-20T10:14:17.442Z,19.10
2022-11-20T10:16:56.537Z,19.15
2022-11-20T10:19:56.708Z,16.08
2022-11-20T10:23:11.821Z,19.08
2022-11-20T10:25:45.893Z,19.10
2022-11-20T10:28:12.696Z,20.40
2022-11-20T10:30:43.195Z,21.48
2022-11-20T10:33:29.016Z,22.50
2022-11-20T10:36:21.420Z,22.92
2022-11-20T10:38:55.457Z,22.73
2022-11-20T10:41:37.108Z,21.23
2022-11-20T10:44:10.165Z,18.88
2022-11-20T10:46:44.957Z,21.70
2022-11-20T10:49:21.298Z,20.60
2022-11-20T10:52:22.210Z,20.13
2022-11-20T10:55:01.531Z,19.25
2022-11-20T10:57:28.436Z,18.00
2022-11-20T11:00:07.271Z,19.67
2022-11-20T11:02:40.242Z,20.42
2022-11-20T11:05:25.617Z,21.58
2022-11-20T11:07:56.330Z,20.50
2022-11-20T11:10:29.614Z,24.40
2022-11-20T11:12:56.484Z,24.02
2022-11-20T11:15:38.160Z,28.67
2022-11-20T11:18:05.768Z,24.92
2022-11-20T11:20:33.362Z,22.85
2022-11-20T11:23:01.026Z,26.67
2022-11-20T11:25:32.124Z,25.77
2022-11-20T11:28:02.102Z,26.20
2022-11-20T11:30:31.266Z,21.40
2022-11-20T11:33:12.196Z,23.48
2022-11-20T11:35:51.128Z,22.58
2022-11-20T11:38:22.808Z,23.70
2022-11-20T11:40:49.685Z,25.33
2022-11-20T11:43:48.213Z,26.45
2022-11-20T11:46:36.327Z,24.92
2022-11-20T11:49:06.312Z,29.63
2022-11-20T11:51:42.064Z,29.35
2022-11-20T11:54:25.264Z,28.55
2022-11-20T11:56:54.120Z,27.38
2022-11-20T11:59:42.179Z,23.60
2022-11-20T12:02:30.560Z,27.60
2022-11-20T12:05:30.298Z,30.10
2022-11-20T12:08:15.861Z,33.13
2022-11-20T12:10:52.520Z,33.47
2022-11-20T12:13:25.474Z,30.92
2022-11-20T12:15:52.723Z,28.50
2022-11-20T12:18:22.133Z,25.10
2022-11-20T12:21:14.253Z,25.77
2022-11-20T12:23:56.071Z,28.40
2022-11-20T12:27:03.236Z,30.13
2022-11-20T12:30:18.279Z,30.95
2022-11-20T12:33:09.441Z,31.50
2022-11-20T12:36:04.469Z,29.23
2022-11-20T12:38:36.852Z,30.98
2022-11-20T12:41:45.049Z,29.25
2022-11-20T12:44:49.090Z,27.85
2022-11-20T12:47:40.681Z,26.80
2022-11-20T12:50:24.088Z,35.97
2022-11-20T12:53:17.277Z,33.60
2022-11-20T12:56:02.927Z,36.03
2022-11-20T12:58:38.068Z,34.97
2022-11-20T13:01:40.743Z,31.92
2022-11-20T13:04:20.798Z,33.50
2022-11-20T13:06:49.061Z,30.15
2022-11-20T13:09:19.457Z,31.75
2022-11-20T13:11:52.091Z,27.90
2022-11-20T13:14:46.885Z,27.63
2022-11-20T13:17:38.546Z,24.60
2022-11-20T13:20:13.095Z,25.83
2022-11-20T13:22:58.289Z,27.42
2022-11-20T13:25:34.937Z,26.83
2022-11-20T13:28:06.169Z,37.55
2022-11-20T13:30:33.425Z,33.15
2022-11-20T13:33:09.727Z,34.30
2022-11-20T13:35:41.294Z,31.67
2022-11-20T13:38:13.898Z,32.25
2022-11-20T13:41:24.634Z,35.08
2022-11-20T13:43:53.457Z,32.63
2022-11-20T13:46:25.436Z,32.88
2022-11-20T13:48:54.721Z,30.05
2022-11-20T13:51:27.759Z,27.50
2022-11-20T13:54:03.271Z,28.48
2022-11-20T13:56:56.786Z,25.98
2022-11-20T14:00:02.607Z,26.58
2022-11-20T14:02:38.012Z,23.40
2022-11-20T14:05:06.631Z,29.38
2022-11-20T14:07:38.526Z,34.70
2022-11-20T14:10:06.221Z,34.00
2022-11-20T14:12:34.687Z,27.00
2022-11-20T14:15:01.567Z,26.48
2022-11-20T14:17:35.567Z,29.55
2022-11-20T14:20:07.481Z,31.85
2022-11-20T14:22:34.537Z,28.92
2022-11-20T14:25:06.929Z,28.38
2022-11-20T14:27:45.759Z,23.95
2022-11-20T14:30:19.793Z,23.08
2022-11-20T14:32:48.331Z,23.08
2022-11-20T14:35:24.066Z,22.83
2022-11-20T14:37:51.434Z,22.15
2022-11-20T14:40:36.816Z,23.07
2022-11-20T14:43:22.321Z,23.08
2022-11-20T14:46:01.032Z,20.95
2022-11-20T14:48:42.957Z,21.00
2022-11-20T14:51:12.156Z,20.42
2022-11-20T14:53:39.172Z,20.40
2022-11-20T14:56:06.094Z,21.42
2022-11-20T14:58:34.562Z,23.23
2022-11-20T15:01:08.726Z,22.30
2022-11-20T15:03:41.245Z,25.00
2022-11-20T15:06:12.196Z,26.42
2022-11-20T15:08:39.076Z,24.00
2022-11-20T15:11:24.641Z,26.90
2022-11-20T15:13:51.597Z,30.02
2022-11-20T15:16:24.178Z,28.27
2022-11-20T15:18:51.307Z,25.15
2022-11-20T15:21:21.696Z,23.23
2022-11-20T15:23:48.871Z,19.80
2022-11-20T15:26:26.704Z,24.25
2022-11-20T15:28:53.988Z,21.05
2022-11-20T15:31:23.390Z,20.45
2022-11-20T15:33:50.572Z,18.67
2022-11-20T15:36:18.043Z,23.02
2022-11-20T15:38:44.857Z,25.83
2022-11-20T15:41:12.382Z,25.25
2022-11-20T15:43:39.672Z,27.13
2022-11-20T15:46:11.974Z,22.58
2022-11-20T15:48:48.864Z,31.63
2022-11-20T15:51:31.789Z,25.33
2022-11-20T15:53:59.241Z,22.77
2022-11-20T15:56:27.102Z,24.65
2022-11-20T15:58:54.137Z,21.30
2022-11-20T16:01:23.182Z,20.23
2022-11-20T16:03:50.240Z,18.40
2022-11-20T16:06:17.310Z,22.30
2022-11-20T16:08:44.314Z,21.30
2022-11-20T16:11:16.657Z,21.90
2022-11-20T16:14:02.585Z,21.70
2022-11-20T16:16:36.060Z,21.73
2022-11-20T16:19:03.252Z,19.85
2022-11-20T16:21:33.779Z,21.15
2022-11-20T16:24:02.334Z,21.83
2022-11-20T16:26:29.868Z,23.08
2022-11-20T16:28:56.814Z,17.00
2022-11-20T16:31:23.753Z,20.65
2022-11-20T16:33:55.418Z,27.05
2022-11-20T16:36:24.469Z,24.10
2022-11-20T16:38:56.065Z,23.50
2022-11-20T16:41:24.001Z,20.63
2022-11-20T16:43:57.951Z,20.08
2022-11-20T16:46:26.653Z,19.73
2022-11-20T16:49:04.714Z,18.48
2022-11-20T16:51:34.449Z,17.52
2022-11-20T16:54:06.511Z,17.23
2022-11-20T16:56:33.558Z,15.05
2022-11-20T16:59:01.713Z,16.83
2022-11-20T17:01:29.668Z,15.55
2022-11-20T17:04:00.529Z,15.90
2022-11-20T17:06:31.679Z,16.90
2022-11-20T17:08:59.454Z,17.45
2022-11-20T17:11:27.341Z,16.98
2022-11-20T17:14:00.670Z,17.13
2022-11-20T17:16:28.418Z,17.27
2022-11-20T17:19:02.521Z,16.92
2022-11-20T17:21:31.675Z,16.90
2022-11-20T17:24:04.906Z,17.60
2022-11-20T17:26:32.674Z,18.50
2022-11-20T17:29:10.717Z,19.40
2022-11-20T17:31:38.819Z,17.60
2022-11-20T17:34:08.046Z,16.85
2022-11-20T17:36:34.988Z,17.33
2022-11-20T17:39:02.001Z,18.90
2022-11-20T17:41:30.482Z,17.17
2022-11-20T17:43:59.435Z,17.23
2022-11-20T17:46:30.171Z,17.02
2022-11-20T17:48:57.028Z,18.15
2022-11-20T17:51:29.164Z,17.10
2022-11-20T17:53:59.035Z,18.50
2022-11-20T17:56:44.625Z,20.35
2022-11-20T17:59:13.335Z,20.08
2022-11-20T18:01:42.864Z,20.27
2022-11-20T18:04:10.740Z,21.27
2022-11-20T18:06:37.608Z,21.10
2022-11-20T18:09:05.519Z,19.70
2022-11-20T18:11:42.582Z,22.30
2022-11-20T18:14:28.709Z,20.50
2022-11-20T18:17:07.753Z,20.58
2022-11-20T18:19:44.979Z,18.98
2022-11-20T18:22:22.807Z,20.67
2022-11-20T18:24:49.798Z,19.40
2022-11-20T18:27:19.745Z,17.83
2022-11-20T18:29:53.652Z,18.15
2022-11-20T18:32:22.106Z,17.65
2022-11-20T18:34:49.969Z,17.85
2022-11-20T18:37:17.385Z,16.73
2022-11-20T18:39:44.517Z,16.63
2022-11-20T18:42:34.023Z,18.45
2022-11-20T18:45:02.228Z,17.05
2022-11-20T18:47:36.172Z,16.42
2022-11-20T18:50:05.702Z,16.02
2022-11-20T18:52:35.135Z,15.43
2022-11-20T18:55:03.568Z,16.08
2022-11-20T18:57:31.243Z,16.08
2022-11-20T19:00:08.027Z,18.73
2022-11-20T19:02:40.921Z,22.38
2022-11-20T19:05:12.874Z,26.00
2022-11-20T19:07:40.288Z,22.10
2022-11-20T19:10:07.529Z,21.42
2022-11-20T19:12:34.643Z,19.83
2022-11-20T19:15:01.486Z,20.30
2022-11-20T19:17:28.391Z,19.55
2022-11-20T19:19:55.668Z,21.80
2022-11-20T19:22:22.705Z,18.40
2022-11-20T19:24:49.772Z,18.75
2022-11-20T19:27:16.852Z,19.40
2022-11-20T19:29:43.781Z,18.90
2022-11-20T19:32:10.815Z,19.90
2022-11-20T19:34:37.797Z,21.50
2022-11-20T19:37:05.230Z,22.80
2022-11-20T19:39:32.082Z,20.83
2022-11-20T19:41:58.865Z,20.38
2022-11-20T19:44:25.713Z,22.85
2022-11-20T19:46:52.663Z,22.48
2022-11-20T19:49:19.586Z,19.20
2022-11-20T19:51:48.269Z,16.88
2022-11-20T19:54:15.143Z,16.33
2022-11-20T19:56:42.097Z,16.45
2022-11-20T19:59:08.817Z,16.08
2022-11-20T20:01:35.600Z,15.70
2022-11-20T20:04:05.057Z,16.67
2022-11-20T20:06:33.826Z,15.68
2022-11-20T20:09:09.157Z,16.20
2022-11-20T20:11:37.255Z,16.38
2022-11-20T20:14:10.625Z,15.35
2022-11-20T20:16:37.470Z,18.70
2022-11-20T20:19:05.809Z,15.82
2022-11-20T20:21:34.956Z,14.77
2022-11-20T20:24:02.166Z,16.52
2022-11-20T20:26:31.066Z,17.08
2022-11-20T20:28:58.037Z,17.83
2022-11-20T20:31:27.485Z,16.83
2022-11-20T20:33:55.234Z,14.90
2022-11-20T20:36:22.937Z,15.65
2022-11-20T20:38:56.472Z,14.13
2022-11-20T20:41:24.954Z,13.60
2022-11-20T20:44:11.338Z,14.82
2022-11-20T20:46:38.550Z,14.23
2022-11-20T20:49:05.350Z,14.35
2022-11-20T20:51:32.253Z,13.00
2022-11-20T20:53:59.450Z,15.57
2022-11-20T20:56:26.933Z,13.85
2022-11-20T20:58:53.666Z,13.88
2022-11-20T21:01:21.390Z,13.80
2022-11-20T21:03:48.329Z,13.02
2022-11-20T21:06:15.190Z,13.70
2022-11-20T21:08:44.282Z,14.05
2022-11-20T21:11:14.232Z,12.52
2022-11-20T21:13:45.593Z,14.57
2022-11-20T21:16:13.679Z,15.43
2022-11-20T21:18:40.585Z,14.55
2022-11-20T21:21:27.557Z,13.07
2022-11-20T21:23:54.426Z,13.63
2022-11-20T21:26:22.041Z,13.45
2022-11-20T21:28:50.120Z,13.70
2022-11-20T21:31:22.460Z,13.73
2022-11-20T21:33:52.652Z,12.23
2022-11-20T21:36:23.719Z,12.88
2022-11-20T21:38:52.031Z,12.88
2022-11-20T21:41:19.073Z,12.13
2022-11-20T21:43:51.602Z,11.73
2022-11-20T21:46:26.048Z,11.38
2022-11-20T21:48:53.271Z,12.52
2022-11-20T21:51:22.141Z,12.13
2022-11-20T21:53:50.224Z,12.68
2022-11-20T21:56:20.753Z,12.65
2022-11-20T21:58:48.587Z,12.13
2022-11-20T22:01:20.508Z,10.40
2022-11-20T22:03:49.507Z,11.95
2022-11-20T22:06:18.392Z,13.32
2022-11-20T22:08:45.337Z,12.43
2022-11-20T22:11:26.992Z,11.38
2022-11-20T22:14:15.678Z,11.73
2022-11-20T22:16:44.655Z,11.90
2022-11-20T22:19:11.748Z,11.90
2022-11-20T22:21:41.939Z,11.38
2022-11-20T22:24:13.701Z,11.00
2022-11-20T22:26:41.019Z,9.77
2022-11-20T22:29:21.345Z,12.25
2022-11-20T22:31:50.844Z,11.63
2022-11-20T22:34:17.871Z,9.43
2022-11-20T22:36:45.577Z,10.68
2022-11-20T22:39:13.135Z,10.15
2022-11-20T22:41:40.193Z,11.43
2022-11-20T22:44:08.265Z,8.43
2022-11-20T22:46:36.968Z,8.02
2022-11-20T22:49:06.498Z,8.68
2022-11-20T22:51:39.394Z,9.23
2022-11-20T22:54:06.504Z,7.53
2022-11-20T22:56:33.774Z,8.15
2022-11-20T22:59:00.678Z,8.32
2022-11-20T23:01:30.511Z,6.57
2022-11-20T23:04:02.754Z,6.57
2022-11-20T23:06:30.159Z,6.72
2022-11-20T23:08:57.122Z,6.55
2022-11-20T23:11:26.806Z,4.75
2022-11-20T23:13:58.581Z,5.35
2022-11-20T23:16:27.615Z,4.90
2022-11-20T23:19:03.630Z,3.80
2022-11-20T23:21:30.755Z,4.80
2022-11-20T23:23:58.883Z,6.50
2022-11-20T23:26:28.519Z,3.22
2022-11-20T23:28:57.582Z,4.35
2022-11-20T23:31:25.756Z,3.60
2022-11-20T23:33:53.116Z,4.47
2022-11-20T23:36:20.261Z,3.85
2022-11-20T23:38:47.107Z,3.72
2022-11-20T23:41:14.647Z,3.95
2022-11-20T23:43:41.700Z,3.53
2022-11-20T23:46:13.747Z,3.30
2022-11-20T23:51:09.953Z,3.22
2022-11-20T23:53:36.822Z,2.05
2022-11-20T23:56:05.526Z,3.42
2022-11-20T23:58:38.846Z,3.97
